sensor_id;sensor_type;location;lat;lon;timestamp;temperature;humidity
31967;DHT22;18496;52.042;6.812;2022-11-03T00:00:00;13.70;99.20
31967;DHT22;18496;52.042;6.812;2022-11-03T00:02:04;13.70;99.30
31967;DHT22;18496;52.042;6.812;2022-11-03T00:04:09;13.70;99.30
31967;DHT22;18496;52.042;6.812;2022-11-03T00:06:13;13.70;99.30
31967;DHT22;18496;52.042;6.812;2022-11-03T00:08:16;13.70;99.40
31967;DHT22;18496;52.042;6.812;2022-11-03T00:10:20;13.70;99.40
31967;DHT22;18496;52.042;6.812;2022-11-03T00:12:24;13.70;99.30
31967;DHT22;18496;52.042;6.812;2022-11-03T00:14:27;13.70;99.30
31967;DHT22;18496;52.042;6.812;2022-11-03T00:16:31;13.70;99.30
31967;DHT22;18496;52.042;6.812;2022-11-03T00:18:35;13.70;99.40
31967;DHT22;18496;52.042;6.812;2022-11-03T00:20:39;13.70;99.40
31967;DHT22;18496;52.042;6.812;2022-11-03T00:22:42;13.70;99.50
31967;DHT22;18496;52.042;6.812;2022-11-03T00:24:46;13.70;99.40
31967;DHT22;18496;52.042;6.812;2022-11-03T00:26:50;13.70;99.70
31967;DHT22;18496;52.042;6.812;2022-11-03T00:28:59;13.70;99.40
31967;DHT22;18496;52.042;6.812;2022-11-03T00:33:16;13.70;99.50
31967;DHT22;18496;52.042;6.812;2022-11-03T00:35:20;13.70;99.60
31967;DHT22;18496;52.042;6.812;2022-11-03T00:37:23;13.70;99.60
31967;DHT22;18496;52.042;6.812;2022-11-03T00:39:27;13.70;99.50
31967;DHT22;18496;52.042;6.812;2022-11-03T00:41:31;13.70;99.50
31967;DHT22;18496;52.042;6.812;2022-11-03T00:43:34;13.70;99.60
31967;DHT22;18496;52.042;6.812;2022-11-03T00:45:38;13.70;99.60
31967;DHT22;18496;52.042;6.812;2022-11-03T00:47:42;13.70;99.60
31967;DHT22;18496;52.042;6.812;2022-11-03T00:50:06;13.70;99.60
31967;DHT22;18496;52.042;6.812;2022-11-03T00:52:09;13.70;99.60
31967;DHT22;18496;52.042;6.812;2022-11-03T00:54:13;13.70;99.70
31967;DHT22;18496;52.042;6.812;2022-11-03T00:56:19;13.70;99.70
31967;DHT22;18496;52.042;6.812;2022-11-03T00:58:24;13.70;99.70
31967;DHT22;18496;52.042;6.812;2022-11-03T01:00:28;13.70;99.80
31967;DHT22;18496;52.042;6.812;2022-11-03T01:02:32;13.70;99.80
31967;DHT22;18496;52.042;6.812;2022-11-03T01:04:35;13.70;99.80
31967;DHT22;18496;52.042;6.812;2022-11-03T01:06:59;13.70;99.90
31967;DHT22;18496;52.042;6.812;2022-11-03T01:09:03;13.70;99.80
31967;DHT22;18496;52.042;6.812;2022-11-03T01:11:19;13.60;99.80
31967;DHT22;18496;52.042;6.812;2022-11-03T01:13:41;13.60;99.90
31967;DHT22;18496;52.042;6.812;2022-11-03T01:15:44;13.60;99.80
31967;DHT22;18496;52.042;6.812;2022-11-03T01:17:48;13.60;99.80
31967;DHT22;18496;52.042;6.812;2022-11-03T01:19:52;13.60;99.80
31967;DHT22;18496;52.042;6.812;2022-11-03T01:21:56;13.60;99.80
31967;DHT22;18496;52.042;6.812;2022-11-03T01:24:01;13.60;99.80
31967;DHT22;18496;52.042;6.812;2022-11-03T01:26:07;13.60;99.90
31967;DHT22;18496;52.042;6.812;2022-11-03T01:28:11;13.60;99.90
31967;DHT22;18496;52.042;6.812;2022-11-03T01:30:15;13.60;99.90
31967;DHT22;18496;52.042;6.812;2022-11-03T01:32:18;13.60;99.90
31967;DHT22;18496;52.042;6.812;2022-11-03T01:34:22;13.60;99.90
31967;DHT22;18496;52.042;6.812;2022-11-03T01:36:26;13.50;99.90
31967;DHT22;18496;52.042;6.812;2022-11-03T01:38:34;13.50;99.90
31967;DHT22;18496;52.042;6.812;2022-11-03T01:40:38;13.50;99.90
31967;DHT22;18496;52.042;6.812;2022-11-03T01:42:42;13.50;99.90
31967;DHT22;18496;52.042;6.812;2022-11-03T01:44:47;13.50;99.90
31967;DHT22;18496;52.042;6.812;2022-11-03T01:49:09;13.50;99.90
31967;DHT22;18496;52.042;6.812;2022-11-03T01:51:14;13.50;99.90
31967;DHT22;18496;52.042;6.812;2022-11-03T01:53:21;13.50;99.90
31967;DHT22;18496;52.042;6.812;2022-11-03T01:55:34;13.40;99.90
31967;DHT22;18496;52.042;6.812;2022-11-03T01:58:04;13.40;99.90
31967;DHT22;18496;52.042;6.812;2022-11-03T02:00:09;13.40;99.90
31967;DHT22;18496;52.042;6.812;2022-11-03T02:02:17;13.40;99.90
31967;DHT22;18496;52.042;6.812;2022-11-03T02:04:28;13.40;99.90
31967;DHT22;18496;52.042;6.812;2022-11-03T02:06:32;13.40;99.90
31967;DHT22;18496;52.042;6.812;2022-11-03T02:08:45;13.40;99.90
31967;DHT22;18496;52.042;6.812;2022-11-03T02:10:50;13.40;99.90
31967;DHT22;18496;52.042;6.812;2022-11-03T02:12:54;13.40;99.90
31967;DHT22;18496;52.042;6.812;2022-11-03T02:15:02;13.30;99.90
31967;DHT22;18496;52.042;6.812;2022-11-03T02:17:10;13.30;99.90
31967;DHT22;18496;52.042;6.812;2022-11-03T02:22:10;13.30;99.90
31967;DHT22;18496;52.042;6.812;2022-11-03T02:27:12;13.30;99.90
31967;DHT22;18496;52.042;6.812;2022-11-03T02:29:16;13.20;99.90
31967;DHT22;18496;52.042;6.812;2022-11-03T02:31:35;13.30;99.90
31967;DHT22;18496;52.042;6.812;2022-11-03T02:38:23;13.30;99.90
31967;DHT22;18496;52.042;6.812;2022-11-03T02:40:35;13.40;99.90
31967;DHT22;18496;52.042;6.812;2022-11-03T02:42:45;13.30;99.90
31967;DHT22;18496;52.042;6.812;2022-11-03T02:44:50;13.30;99.90
31967;DHT22;18496;52.042;6.812;2022-11-03T02:46:57;13.30;99.90
31967;DHT22;18496;52.042;6.812;2022-11-03T02:49:03;13.30;99.90
31967;DHT22;18496;52.042;6.812;2022-11-03T02:51:07;13.30;99.90
31967;DHT22;18496;52.042;6.812;2022-11-03T02:53:11;13.30;99.90
31967;DHT22;18496;52.042;6.812;2022-11-03T02:55:24;13.30;99.90
31967;DHT22;18496;52.042;6.812;2022-11-03T02:57:29;13.30;99.90
31967;DHT22;18496;52.042;6.812;2022-11-03T02:59:45;13.30;99.90
31967;DHT22;18496;52.042;6.812;2022-11-03T03:02:21;13.40;99.90
31967;DHT22;18496;52.042;6.812;2022-11-03T03:06:56;13.40;99.90
31967;DHT22;18496;52.042;6.812;2022-11-03T03:09:07;13.40;99.90
31967;DHT22;18496;52.042;6.812;2022-11-03T03:11:13;13.30;99.90
31967;DHT22;18496;52.042;6.812;2022-11-03T03:13:19;13.30;99.90
31967;DHT22;18496;52.042;6.812;2022-11-03T03:18:00;13.30;99.90
31967;DHT22;18496;52.042;6.812;2022-11-03T03:20:23;13.30;99.90
31967;DHT22;18496;52.042;6.812;2022-11-03T03:25:03;13.30;99.90
31967;DHT22;18496;52.042;6.812;2022-11-03T03:27:11;13.30;99.90
31967;DHT22;18496;52.042;6.812;2022-11-03T03:29:32;13.30;99.90
31967;DHT22;18496;52.042;6.812;2022-11-03T03:31:39;13.40;99.90
31967;DHT22;18496;52.042;6.812;2022-11-03T03:33:44;13.40;99.90
31967;DHT22;18496;52.042;6.812;2022-11-03T03:35:50;13.30;99.90
31967;DHT22;18496;52.042;6.812;2022-11-03T03:38:00;13.30;99.90
31967;DHT22;18496;52.042;6.812;2022-11-03T03:40:08;13.30;99.90
31967;DHT22;18496;52.042;6.812;2022-11-03T03:42:13;13.30;99.90
31967;DHT22;18496;52.042;6.812;2022-11-03T03:44:18;13.30;99.90
31967;DHT22;18496;52.042;6.812;2022-11-03T03:46:27;13.30;99.90
31967;DHT22;18496;52.042;6.812;2022-11-03T03:48:33;13.30;99.90
31967;DHT22;18496;52.042;6.812;2022-11-03T03:50:38;13.30;99.90
31967;DHT22;18496;52.042;6.812;2022-11-03T03:52:42;13.30;99.90
31967;DHT22;18496;52.042;6.812;2022-11-03T03:54:46;13.30;99.90
31967;DHT22;18496;52.042;6.812;2022-11-03T03:56:55;13.30;99.90
31967;DHT22;18496;52.042;6.812;2022-11-03T03:59:01;13.30;99.90
31967;DHT22;18496;52.042;6.812;2022-11-03T04:01:05;13.20;99.90
31967;DHT22;18496;52.042;6.812;2022-11-03T04:03:21;13.30;99.90
31967;DHT22;18496;52.042;6.812;2022-11-03T04:05:25;13.30;99.90
31967;DHT22;18496;52.042;6.812;2022-11-03T04:07:29;13.30;99.90
31967;DHT22;18496;52.042;6.812;2022-11-03T04:09:51;13.30;99.90
31967;DHT22;18496;52.042;6.812;2022-11-03T04:11:54;13.30;99.90
31967;DHT22;18496;52.042;6.812;2022-11-03T04:14:17;13.30;99.90
31967;DHT22;18496;52.042;6.812;2022-11-03T04:16:39;13.30;99.90
31967;DHT22;18496;52.042;6.812;2022-11-03T04:19:01;13.30;99.90
31967;DHT22;18496;52.042;6.812;2022-11-03T04:21:23;13.20;99.90
31967;DHT22;18496;52.042;6.812;2022-11-03T04:23:45;13.20;99.90
31967;DHT22;18496;52.042;6.812;2022-11-03T04:25:52;13.20;99.90
31967;DHT22;18496;52.042;6.812;2022-11-03T04:27:56;13.20;99.90
31967;DHT22;18496;52.042;6.812;2022-11-03T04:30:17;13.20;99.90
31967;DHT22;18496;52.042;6.812;2022-11-03T04:32:21;13.30;99.90
31967;DHT22;18496;52.042;6.812;2022-11-03T04:34:25;13.30;99.90
31967;DHT22;18496;52.042;6.812;2022-11-03T04:36:29;13.30;99.90
31967;DHT22;18496;52.042;6.812;2022-11-03T04:38:32;13.30;99.90
31967;DHT22;18496;52.042;6.812;2022-11-03T04:40:37;13.30;99.90
31967;DHT22;18496;52.042;6.812;2022-11-03T04:42:42;13.30;99.90
31967;DHT22;18496;52.042;6.812;2022-11-03T04:44:47;13.30;99.90
31967;DHT22;18496;52.042;6.812;2022-11-03T04:46:52;13.40;99.90
31967;DHT22;18496;52.042;6.812;2022-11-03T04:48:59;13.40;99.90
31967;DHT22;18496;52.042;6.812;2022-11-03T04:51:16;13.40;99.90
31967;DHT22;18496;52.042;6.812;2022-11-03T04:53:21;13.40;99.90
31967;DHT22;18496;52.042;6.812;2022-11-03T04:55:26;13.30;99.90
31967;DHT22;18496;52.042;6.812;2022-11-03T04:57:29;13.30;99.90
31967;DHT22;18496;52.042;6.812;2022-11-03T04:59:33;13.30;99.90
31967;DHT22;18496;52.042;6.812;2022-11-03T05:01:37;13.30;99.90
31967;DHT22;18496;52.042;6.812;2022-11-03T05:03:42;13.30;99.90
31967;DHT22;18496;52.042;6.812;2022-11-03T05:05:45;13.30;99.90
31967;DHT22;18496;52.042;6.812;2022-11-03T05:07:54;13.30;99.90
31967;DHT22;18496;52.042;6.812;2022-11-03T05:09:59;13.30;99.90
31967;DHT22;18496;52.042;6.812;2022-11-03T05:12:03;13.30;99.90
31967;DHT22;18496;52.042;6.812;2022-11-03T05:16:17;13.40;99.90
31967;DHT22;18496;52.042;6.812;2022-11-03T05:18:25;13.40;99.90
31967;DHT22;18496;52.042;6.812;2022-11-03T05:20:33;13.40;99.90
31967;DHT22;18496;52.042;6.812;2022-11-03T05:22:38;13.30;99.90
31967;DHT22;18496;52.042;6.812;2022-11-03T05:24:42;13.30;99.90
31967;DHT22;18496;52.042;6.812;2022-11-03T05:26:47;13.30;99.90
31967;DHT22;18496;52.042;6.812;2022-11-03T05:28:55;13.30;99.90
31967;DHT22;18496;52.042;6.812;2022-11-03T05:31:20;13.30;99.90
31967;DHT22;18496;52.042;6.812;2022-11-03T05:33:32;13.30;99.90
31967;DHT22;18496;52.042;6.812;2022-11-03T05:35:37;13.30;99.90
31967;DHT22;18496;52.042;6.812;2022-11-03T05:37:41;13.40;99.90
31967;DHT22;18496;52.042;6.812;2022-11-03T05:39:47;13.40;99.90
31967;DHT22;18496;52.042;6.812;2022-11-03T05:41:51;13.40;99.90
31967;DHT22;18496;52.042;6.812;2022-11-03T05:44:01;13.40;99.90
31967;DHT22;18496;52.042;6.812;2022-11-03T05:46:08;13.40;99.90
31967;DHT22;18496;52.042;6.812;2022-11-03T05:48:34;13.40;99.90
31967;DHT22;18496;52.042;6.812;2022-11-03T05:50:39;13.40;99.90
31967;DHT22;18496;52.042;6.812;2022-11-03T05:52:45;13.40;99.90
31967;DHT22;18496;52.042;6.812;2022-11-03T05:54:49;13.40;99.90
31967;DHT22;18496;52.042;6.812;2022-11-03T05:56:55;13.40;99.90
31967;DHT22;18496;52.042;6.812;2022-11-03T05:58:59;13.40;99.90
31967;DHT22;18496;52.042;6.812;2022-11-03T06:01:31;13.40;99.90
31967;DHT22;18496;52.042;6.812;2022-11-03T06:03:36;13.40;99.90
31967;DHT22;18496;52.042;6.812;2022-11-03T06:05:40;13.40;99.90
31967;DHT22;18496;52.042;6.812;2022-11-03T06:07:43;13.40;99.90
31967;DHT22;18496;52.042;6.812;2022-11-03T06:09:47;13.40;99.90
31967;DHT22;18496;52.042;6.812;2022-11-03T06:11:53;13.30;99.90
31967;DHT22;18496;52.042;6.812;2022-11-03T06:13:59;13.40;99.90
31967;DHT22;18496;52.042;6.812;2022-11-03T06:16:27;13.40;99.90
31967;DHT22;18496;52.042;6.812;2022-11-03T06:18:35;13.40;99.90
31967;DHT22;18496;52.042;6.812;2022-11-03T06:20:39;13.30;99.90
31967;DHT22;18496;52.042;6.812;2022-11-03T06:22:43;13.40;99.90
31967;DHT22;18496;52.042;6.812;2022-11-03T06:24:48;13.40;99.90
31967;DHT22;18496;52.042;6.812;2022-11-03T06:26:51;13.40;99.90
31967;DHT22;18496;52.042;6.812;2022-11-03T06:28:55;13.50;99.90
31967;DHT22;18496;52.042;6.812;2022-11-03T06:30:59;13.50;99.90
31967;DHT22;18496;52.042;6.812;2022-11-03T06:33:18;13.50;99.90
31967;DHT22;18496;52.042;6.812;2022-11-03T06:35:24;13.50;99.90
31967;DHT22;18496;52.042;6.812;2022-11-03T06:37:31;13.50;99.90
31967;DHT22;18496;52.042;6.812;2022-11-03T06:39:36;13.50;99.90
31967;DHT22;18496;52.042;6.812;2022-11-03T06:41:40;13.50;99.90
31967;DHT22;18496;52.042;6.812;2022-11-03T06:43:44;13.50;99.90
31967;DHT22;18496;52.042;6.812;2022-11-03T06:45:56;13.50;99.90
31967;DHT22;18496;52.042;6.812;2022-11-03T06:48:00;13.50;99.90
31967;DHT22;18496;52.042;6.812;2022-11-03T06:50:25;13.50;99.90
31967;DHT22;18496;52.042;6.812;2022-11-03T06:52:36;13.50;99.90
31967;DHT22;18496;52.042;6.812;2022-11-03T06:54:42;13.50;99.90
31967;DHT22;18496;52.042;6.812;2022-11-03T06:56:45;13.50;99.90
31967;DHT22;18496;52.042;6.812;2022-11-03T06:58:51;13.50;99.90
31967;DHT22;18496;52.042;6.812;2022-11-03T07:00:58;13.50;99.90
31967;DHT22;18496;52.042;6.812;2022-11-03T07:03:26;13.50;99.90
31967;DHT22;18496;52.042;6.812;2022-11-03T07:05:31;13.50;99.90
31967;DHT22;18496;52.042;6.812;2022-11-03T07:07:35;13.50;99.90
31967;DHT22;18496;52.042;6.812;2022-11-03T07:09:38;13.50;99.90
31967;DHT22;18496;52.042;6.812;2022-11-03T07:11:48;13.50;99.90
31967;DHT22;18496;52.042;6.812;2022-11-03T07:13:56;13.60;99.90
31967;DHT22;18496;52.042;6.812;2022-11-03T07:16:00;13.60;99.90
31967;DHT22;18496;52.042;6.812;2022-11-03T07:18:14;13.60;99.90
31967;DHT22;18496;52.042;6.812;2022-11-03T07:20:19;13.60;99.90
31967;DHT22;18496;52.042;6.812;2022-11-03T07:22:25;13.60;99.90
31967;DHT22;18496;52.042;6.812;2022-11-03T07:24:31;13.60;99.90
31967;DHT22;18496;52.042;6.812;2022-11-03T07:26:36;13.60;99.90
31967;DHT22;18496;52.042;6.812;2022-11-03T07:28:39;13.60;99.90
31967;DHT22;18496;52.042;6.812;2022-11-03T07:30:43;13.60;99.90
31967;DHT22;18496;52.042;6.812;2022-11-03T07:32:49;13.60;99.90
31967;DHT22;18496;52.042;6.812;2022-11-03T07:35:19;13.60;99.90
31967;DHT22;18496;52.042;6.812;2022-11-03T07:37:25;13.60;99.90
31967;DHT22;18496;52.042;6.812;2022-11-03T07:39:33;13.60;99.90
31967;DHT22;18496;52.042;6.812;2022-11-03T07:41:39;13.70;99.90
31967;DHT22;18496;52.042;6.812;2022-11-03T07:43:52;13.60;99.90
31967;DHT22;18496;52.042;6.812;2022-11-03T07:45:58;13.60;99.90
31967;DHT22;18496;52.042;6.812;2022-11-03T07:50:37;13.70;99.90
31967;DHT22;18496;52.042;6.812;2022-11-03T07:52:40;13.70;99.90
31967;DHT22;18496;52.042;6.812;2022-11-03T07:54:44;13.70;99.90
31967;DHT22;18496;52.042;6.812;2022-11-03T07:56:54;13.70;99.90
31967;DHT22;18496;52.042;6.812;2022-11-03T07:59:15;13.70;99.90
31967;DHT22;18496;52.042;6.812;2022-11-03T08:01:41;13.80;99.90
31967;DHT22;18496;52.042;6.812;2022-11-03T08:03:46;13.80;99.90
31967;DHT22;18496;52.042;6.812;2022-11-03T08:05:50;13.80;99.90
31967;DHT22;18496;52.042;6.812;2022-11-03T08:07:54;13.80;99.90
31967;DHT22;18496;52.042;6.812;2022-11-03T08:09:57;13.80;99.90
31967;DHT22;18496;52.042;6.812;2022-11-03T08:12:01;13.80;99.90
31967;DHT22;18496;52.042;6.812;2022-11-03T08:14:05;13.90;99.90
31967;DHT22;18496;52.042;6.812;2022-11-03T08:16:08;13.90;99.90
31967;DHT22;18496;52.042;6.812;2022-11-03T08:18:12;13.90;99.90
31967;DHT22;18496;52.042;6.812;2022-11-03T08:20:15;13.90;99.90
31967;DHT22;18496;52.042;6.812;2022-11-03T08:22:19;13.90;99.90
31967;DHT22;18496;52.042;6.812;2022-11-03T08:24:23;13.90;99.90
31967;DHT22;18496;52.042;6.812;2022-11-03T08:26:27;13.90;99.90
31967;DHT22;18496;52.042;6.812;2022-11-03T08:28:32;14.00;99.90
31967;DHT22;18496;52.042;6.812;2022-11-03T08:30:35;14.00;99.90
31967;DHT22;18496;52.042;6.812;2022-11-03T08:32:39;14.00;99.90
31967;DHT22;18496;52.042;6.812;2022-11-03T08:34:43;14.00;99.90
31967;DHT22;18496;52.042;6.812;2022-11-03T08:36:46;14.00;99.90
31967;DHT22;18496;52.042;6.812;2022-11-03T08:38:50;14.00;99.90
31967;DHT22;18496;52.042;6.812;2022-11-03T08:40:54;14.10;99.90
31967;DHT22;18496;52.042;6.812;2022-11-03T08:42:58;14.10;99.90
31967;DHT22;18496;52.042;6.812;2022-11-03T08:45:05;14.10;99.90
31967;DHT22;18496;52.042;6.812;2022-11-03T08:47:09;14.10;99.90
31967;DHT22;18496;52.042;6.812;2022-11-03T08:49:13;14.10;99.90
31967;DHT22;18496;52.042;6.812;2022-11-03T08:51:16;14.20;99.90
31967;DHT22;18496;52.042;6.812;2022-11-03T08:53:25;14.30;99.90
31967;DHT22;18496;52.042;6.812;2022-11-03T08:55:28;14.30;99.90
31967;DHT22;18496;52.042;6.812;2022-11-03T08:57:32;14.30;99.90
31967;DHT22;18496;52.042;6.812;2022-11-03T08:59:36;14.30;99.90
31967;DHT22;18496;52.042;6.812;2022-11-03T09:01:40;14.40;99.90
31967;DHT22;18496;52.042;6.812;2022-11-03T09:03:44;14.40;99.90
31967;DHT22;18496;52.042;6.812;2022-11-03T09:05:48;14.30;99.90
31967;DHT22;18496;52.042;6.812;2022-11-03T09:07:51;14.40;99.90
31967;DHT22;18496;52.042;6.812;2022-11-03T09:09:55;14.40;99.90
31967;DHT22;18496;52.042;6.812;2022-11-03T09:11:59;14.50;99.90
31967;DHT22;18496;52.042;6.812;2022-11-03T09:14:02;14.50;99.90
31967;DHT22;18496;52.042;6.812;2022-11-03T09:16:06;14.50;99.90
31967;DHT22;18496;52.042;6.812;2022-11-03T09:18:10;14.60;99.90
31967;DHT22;18496;52.042;6.812;2022-11-03T09:20:14;14.60;99.90
31967;DHT22;18496;52.042;6.812;2022-11-03T09:22:18;14.70;99.90
31967;DHT22;18496;52.042;6.812;2022-11-03T09:24:21;14.80;99.90
31967;DHT22;18496;52.042;6.812;2022-11-03T09:26:25;14.80;99.90
31967;DHT22;18496;52.042;6.812;2022-11-03T09:28:29;14.90;99.90
31967;DHT22;18496;52.042;6.812;2022-11-03T09:30:38;14.90;99.90
31967;DHT22;18496;52.042;6.812;2022-11-03T09:32:41;15.00;99.90
31967;DHT22;18496;52.042;6.812;2022-11-03T09:34:45;15.00;99.90
31967;DHT22;18496;52.042;6.812;2022-11-03T09:36:49;15.00;99.90
31967;DHT22;18496;52.042;6.812;2022-11-03T09:38:53;15.00;99.90
31967;DHT22;18496;52.042;6.812;2022-11-03T09:40:56;15.00;99.90
31967;DHT22;18496;52.042;6.812;2022-11-03T09:43:00;15.00;99.90
31967;DHT22;18496;52.042;6.812;2022-11-03T09:45:05;15.10;99.90
31967;DHT22;18496;52.042;6.812;2022-11-03T09:47:18;15.10;99.90
31967;DHT22;18496;52.042;6.812;2022-11-03T09:49:22;15.10;99.90
31967;DHT22;18496;52.042;6.812;2022-11-03T09:51:27;15.10;99.90
31967;DHT22;18496;52.042;6.812;2022-11-03T09:53:31;15.10;99.90
31967;DHT22;18496;52.042;6.812;2022-11-03T09:55:34;15.10;99.90
31967;DHT22;18496;52.042;6.812;2022-11-03T09:57:38;15.10;99.90
31967;DHT22;18496;52.042;6.812;2022-11-03T09:59:44;15.10;99.90
31967;DHT22;18496;52.042;6.812;2022-11-03T10:01:50;15.10;99.90
31967;DHT22;18496;52.042;6.812;2022-11-03T10:04:00;15.20;99.90
31967;DHT22;18496;52.042;6.812;2022-11-03T10:06:04;15.20;99.90
31967;DHT22;18496;52.042;6.812;2022-11-03T10:08:23;15.20;99.90
31967;DHT22;18496;52.042;6.812;2022-11-03T10:10:28;15.20;99.90
31967;DHT22;18496;52.042;6.812;2022-11-03T10:12:35;15.20;99.90
31967;DHT22;18496;52.042;6.812;2022-11-03T10:14:41;15.30;99.90
31967;DHT22;18496;52.042;6.812;2022-11-03T10:16:52;15.30;99.90
31967;DHT22;18496;52.042;6.812;2022-11-03T10:18:56;15.40;99.90
31967;DHT22;18496;52.042;6.812;2022-11-03T10:21:15;15.40;99.90
31967;DHT22;18496;52.042;6.812;2022-11-03T10:23:20;15.50;99.90
31967;DHT22;18496;52.042;6.812;2022-11-03T10:27:41;15.60;99.90
31967;DHT22;18496;52.042;6.812;2022-11-03T10:29:45;15.60;99.90
31967;DHT22;18496;52.042;6.812;2022-11-03T10:31:51;15.70;99.90
31967;DHT22;18496;52.042;6.812;2022-11-03T10:33:55;15.70;99.90
31967;DHT22;18496;52.042;6.812;2022-11-03T10:36:04;15.70;99.70
31967;DHT22;18496;52.042;6.812;2022-11-03T10:40:35;15.70;99.40
31967;DHT22;18496;52.042;6.812;2022-11-03T10:42:39;15.70;99.40
31967;DHT22;18496;52.042;6.812;2022-11-03T10:44:42;15.70;99.30
31967;DHT22;18496;52.042;6.812;2022-11-03T10:49:04;15.70;99.00
31967;DHT22;18496;52.042;6.812;2022-11-03T10:51:13;15.70;99.10
31967;DHT22;18496;52.042;6.812;2022-11-03T10:53:19;15.70;99.10
31967;DHT22;18496;52.042;6.812;2022-11-03T10:55:24;15.70;99.20
31967;DHT22;18496;52.042;6.812;2022-11-03T10:57:28;15.80;99.10
31967;DHT22;18496;52.042;6.812;2022-11-03T10:59:35;15.80;99.00
31967;DHT22;18496;52.042;6.812;2022-11-03T11:01:39;15.80;98.80
31967;DHT22;18496;52.042;6.812;2022-11-03T11:03:43;15.70;98.70
31967;DHT22;18496;52.042;6.812;2022-11-03T11:05:47;15.80;98.70
31967;DHT22;18496;52.042;6.812;2022-11-03T11:07:52;15.80;98.70
31967;DHT22;18496;52.042;6.812;2022-11-03T11:09:56;15.80;98.70
31967;DHT22;18496;52.042;6.812;2022-11-03T11:12:23;15.80;98.60
31967;DHT22;18496;52.042;6.812;2022-11-03T11:16:52;15.80;98.60
31967;DHT22;18496;52.042;6.812;2022-11-03T11:21:01;15.80;98.50
31967;DHT22;18496;52.042;6.812;2022-11-03T11:28:17;15.90;97.90
31967;DHT22;18496;52.042;6.812;2022-11-03T11:34:44;16.00;97.70
31967;DHT22;18496;52.042;6.812;2022-11-03T11:38:58;15.90;97.60
31967;DHT22;18496;52.042;6.812;2022-11-03T11:41:02;16.00;97.60
31967;DHT22;18496;52.042;6.812;2022-11-03T11:45:13;16.00;97.30
31967;DHT22;18496;52.042;6.812;2022-11-03T11:49:26;16.10;97.50
31967;DHT22;18496;52.042;6.812;2022-11-03T11:51:34;16.10;97.00
31967;DHT22;18496;52.042;6.812;2022-11-03T11:53:39;16.10;97.00
31967;DHT22;18496;52.042;6.812;2022-11-03T11:55:49;16.10;97.00
31967;DHT22;18496;52.042;6.812;2022-11-03T11:57:54;16.20;96.90
31967;DHT22;18496;52.042;6.812;2022-11-03T11:59:59;16.20;96.90
31967;DHT22;18496;52.042;6.812;2022-11-03T12:02:09;16.20;96.80
31967;DHT22;18496;52.042;6.812;2022-11-03T12:04:22;16.30;97.10
31967;DHT22;18496;52.042;6.812;2022-11-03T12:06:37;16.30;96.70
31967;DHT22;18496;52.042;6.812;2022-11-03T12:08:42;16.40;96.60
31967;DHT22;18496;52.042;6.812;2022-11-03T12:10:59;16.50;96.30
31967;DHT22;18496;52.042;6.812;2022-11-03T12:13:40;16.50;96.40
31967;DHT22;18496;52.042;6.812;2022-11-03T12:15:57;16.70;95.90
31967;DHT22;18496;52.042;6.812;2022-11-03T12:18:30;16.80;95.80
31967;DHT22;18496;52.042;6.812;2022-11-03T12:20:35;16.90;95.10
31967;DHT22;18496;52.042;6.812;2022-11-03T12:22:46;16.90;95.10
31967;DHT22;18496;52.042;6.812;2022-11-03T12:27:00;16.90;94.60
31967;DHT22;18496;52.042;6.812;2022-11-03T12:29:05;16.90;94.60
31967;DHT22;18496;52.042;6.812;2022-11-03T12:31:08;17.00;94.60
31967;DHT22;18496;52.042;6.812;2022-11-03T12:33:12;17.00;94.50
31967;DHT22;18496;52.042;6.812;2022-11-03T12:35:15;16.90;94.60
31967;DHT22;18496;52.042;6.812;2022-11-03T12:37:19;16.90;94.30
31967;DHT22;18496;52.042;6.812;2022-11-03T12:39:23;17.00;94.60
31967;DHT22;18496;52.042;6.812;2022-11-03T12:41:26;16.90;94.50
31967;DHT22;18496;52.042;6.812;2022-11-03T12:43:30;16.90;94.60
31967;DHT22;18496;52.042;6.812;2022-11-03T12:45:34;16.90;94.70
31967;DHT22;18496;52.042;6.812;2022-11-03T12:47:37;16.90;94.70
31967;DHT22;18496;52.042;6.812;2022-11-03T12:49:41;16.90;94.40
31967;DHT22;18496;52.042;6.812;2022-11-03T12:51:44;16.90;94.40
31967;DHT22;18496;52.042;6.812;2022-11-03T12:53:49;17.00;94.10
31967;DHT22;18496;52.042;6.812;2022-11-03T12:55:52;17.00;94.10
31967;DHT22;18496;52.042;6.812;2022-11-03T12:57:56;17.00;94.20
31967;DHT22;18496;52.042;6.812;2022-11-03T13:00:00;17.00;94.30
31967;DHT22;18496;52.042;6.812;2022-11-03T13:02:03;17.00;94.00
31967;DHT22;18496;52.042;6.812;2022-11-03T13:04:07;17.10;94.00
31967;DHT22;18496;52.042;6.812;2022-11-03T13:06:11;17.00;94.10
31967;DHT22;18496;52.042;6.812;2022-11-03T13:08:17;17.00;93.70
31967;DHT22;18496;52.042;6.812;2022-11-03T13:10:20;17.10;93.70
31967;DHT22;18496;52.042;6.812;2022-11-03T13:12:24;17.10;93.80
31967;DHT22;18496;52.042;6.812;2022-11-03T13:14:33;17.00;93.60
31967;DHT22;18496;52.042;6.812;2022-11-03T13:16:37;17.00;93.80
31967;DHT22;18496;52.042;6.812;2022-11-03T13:18:41;17.00;93.70
31967;DHT22;18496;52.042;6.812;2022-11-03T13:20:54;17.10;93.70
31967;DHT22;18496;52.042;6.812;2022-11-03T13:22:58;17.10;93.80
31967;DHT22;18496;52.042;6.812;2022-11-03T13:25:02;17.10;93.90
31967;DHT22;18496;52.042;6.812;2022-11-03T13:27:07;17.10;94.00
31967;DHT22;18496;52.042;6.812;2022-11-03T13:29:10;17.10;93.90
31967;DHT22;18496;52.042;6.812;2022-11-03T13:31:14;17.10;94.00
31967;DHT22;18496;52.042;6.812;2022-11-03T13:33:17;17.00;94.00
31967;DHT22;18496;52.042;6.812;2022-11-03T13:35:21;17.00;94.10
31967;DHT22;18496;52.042;6.812;2022-11-03T13:37:25;17.00;94.10
31967;DHT22;18496;52.042;6.812;2022-11-03T13:39:29;17.10;94.20
31967;DHT22;18496;52.042;6.812;2022-11-03T13:41:33;17.00;94.30
31967;DHT22;18496;52.042;6.812;2022-11-03T13:43:36;17.00;94.30
31967;DHT22;18496;52.042;6.812;2022-11-03T13:45:40;17.00;94.30
31967;DHT22;18496;52.042;6.812;2022-11-03T13:47:43;17.00;94.20
31967;DHT22;18496;52.042;6.812;2022-11-03T13:49:47;17.00;94.30
31967;DHT22;18496;52.042;6.812;2022-11-03T13:51:54;17.00;94.40
31967;DHT22;18496;52.042;6.812;2022-11-03T13:53:58;17.00;94.40
31967;DHT22;18496;52.042;6.812;2022-11-03T13:56:02;17.00;94.30
31967;DHT22;18496;52.042;6.812;2022-11-03T13:58:05;17.00;94.40
31967;DHT22;18496;52.042;6.812;2022-11-03T14:00:10;17.00;94.30
31967;DHT22;18496;52.042;6.812;2022-11-03T14:02:18;17.00;94.40
31967;DHT22;18496;52.042;6.812;2022-11-03T14:04:22;17.00;94.30
31967;DHT22;18496;52.042;6.812;2022-11-03T14:06:25;17.00;94.40
31967;DHT22;18496;52.042;6.812;2022-11-03T14:08:29;17.00;94.50
31967;DHT22;18496;52.042;6.812;2022-11-03T14:10:33;17.00;94.40
31967;DHT22;18496;52.042;6.812;2022-11-03T14:12:36;17.00;94.50
31967;DHT22;18496;52.042;6.812;2022-11-03T14:14:41;17.10;94.60
31967;DHT22;18496;52.042;6.812;2022-11-03T14:16:45;17.00;94.50